createdAt,value
2019-04-26T00:01:35.641Z,12.40
2019-04-26T00:06:21.882Z,12.30
2019-04-26T00:11:32.786Z,12.10
2019-04-26T00:16:29.710Z,11.90
2019-04-26T00:21:16.139Z,11.80
2019-04-26T00:26:02.291Z,11.70
2019-04-26T00:30:48.086Z,11.60
2019-04-26T00:35:46.456Z,11.60
2019-04-26T00:40:22.185Z,11.60
2019-04-26T00:45:08.611Z,11.60
2019-04-26T00:49:55.015Z,11.60
2019-04-26T00:54:41.526Z,11.50
2019-04-26T00:59:28.558Z,11.40
2019-04-26T01:04:15.509Z,11.40
2019-04-26T01:09:01.938Z,11.40
2019-04-26T01:13:47.599Z,11.40
2019-04-26T01:18:34.366Z,11.40
2019-04-26T01:23:22.996Z,11.20
2019-04-26T01:28:13.181Z,11.30
2019-04-26T01:32:59.313Z,11.30
2019-04-26T01:37:47.712Z,11.10
2019-04-26T01:42:47.191Z,11.00
2019-04-26T01:47:33.922Z,11.00
2019-04-26T01:52:19.686Z,11.10
2019-04-26T01:57:06.578Z,11.10
2019-04-26T02:02:11.238Z,11.30
2019-04-26T02:06:56.969Z,11.30
2019-04-26T02:11:43.321Z,11.50
2019-04-26T02:16:29.212Z,11.50
2019-04-26T02:21:32.560Z,11.50
2019-04-26T02:26:36.676Z,11.50
2019-04-26T02:31:22.369Z,11.50
2019-04-26T02:36:08.113Z,11.50
2019-04-26T02:40:55.299Z,11.50
2019-04-26T02:46:03.140Z,11.50
2019-04-26T02:50:56.384Z,11.40
2019-04-26T02:56:08.600Z,11.40
2019-04-26T03:00:55.292Z,11.30
2019-04-26T03:05:43.687Z,11.30
2019-04-26T03:10:40.334Z,11.20
2019-04-26T03:15:40.211Z,11.20
2019-04-26T03:20:34.965Z,11.20
2019-04-26T03:25:31.290Z,11.20
2019-04-26T03:30:51.063Z,11.20
2019-04-26T03:36:05.475Z,11.20
2019-04-26T03:41:08.460Z,11.20
2019-04-26T03:46:16.149Z,11.30
2019-04-26T03:51:13.678Z,11.30
2019-04-26T03:56:46.632Z,11.10
2019-04-26T04:01:39.453Z,11.10
2019-04-26T04:06:30.325Z,12.10
2019-04-26T04:11:20.567Z,12.90
2019-04-26T04:16:17.704Z,12.20
2019-04-26T04:21:41.359Z,11.90
2019-04-26T04:27:05.026Z,11.20
2019-04-26T04:31:55.048Z,10.90
2019-04-26T04:36:48.268Z,10.70
2019-04-26T04:42:01.075Z,10.60
2019-04-26T04:47:25.699Z,10.50
2019-04-26T04:52:54.782Z,10.60
2019-04-26T04:58:06.262Z,10.50
2019-04-26T05:03:25.699Z,10.40
2019-04-26T05:08:41.780Z,10.30
2019-04-26T05:13:49.960Z,10.40
2019-04-26T05:19:26.653Z,10.40
2019-04-26T05:24:42.345Z,10.20
2019-04-26T05:30:32.804Z,10.20
2019-04-26T05:35:51.468Z,10.10
2019-04-26T05:41:01.618Z,9.80
2019-04-26T05:46:31.694Z,9.80
2019-04-26T05:51:56.043Z,9.80
2019-04-26T05:57:05.995Z,9.80
2019-04-26T06:02:21.123Z,9.70
2019-04-26T06:07:30.631Z,9.70
2019-04-26T06:12:28.274Z,9.60
2019-04-26T06:18:06.341Z,9.60
2019-04-26T06:23:10.915Z,9.50
2019-04-26T06:28:17.962Z,9.40
2019-04-26T06:33:13.122Z,9.40
2019-04-26T06:39:04.212Z,9.40
2019-04-26T06:43:55.567Z,9.40
2019-04-26T06:49:40.110Z,9.30
2019-04-26T06:54:50.475Z,9.20
2019-04-26T07:00:02.331Z,9.30
2019-04-26T07:05:17.938Z,9.20
2019-04-26T07:10:35.486Z,9.20
2019-04-26T07:15:51.488Z,9.20
2019-04-26T07:20:52.165Z,9.30
2019-04-26T07:26:13.903Z,9.30
2019-04-26T07:31:25.548Z,9.20
2019-04-26T07:36:48.197Z,9.30
2019-04-26T07:42:28.320Z,9.50
2019-04-26T07:48:19.632Z,9.40
2019-04-26T07:53:49.765Z,9.50
2019-04-26T07:59:32.050Z,9.40
2019-04-26T08:04:22.859Z,9.50
2019-04-26T08:09:25.051Z,8.90
2019-04-26T08:14:13.262Z,8.80
2019-04-26T08:19:05.836Z,8.70
2019-04-26T08:24:12.515Z,8.40
2019-04-26T08:29:00.563Z,8.40
2019-04-26T08:33:54.578Z,8.60
2019-04-26T08:38:41.477Z,8.60
2019-04-26T08:43:47.284Z,8.40
2019-04-26T08:49:06.439Z,8.30
2019-04-26T08:53:55.322Z,8.20
2019-04-26T08:58:44.390Z,8.20
2019-04-26T09:03:41.376Z,8.10
2019-04-26T09:08:30.907Z,8.00
2019-04-26T09:13:18.826Z,7.90
2019-04-26T09:18:06.034Z,7.70
2019-04-26T09:23:14.963Z,7.70
2019-04-26T09:28:12.488Z,7.60
2019-04-26T09:33:07.544Z,7.50
2019-04-26T09:37:53.381Z,7.50
2019-04-26T09:43:02.701Z,7.40
2019-04-26T09:47:55.431Z,7.40
2019-04-26T09:52:45.662Z,7.40
2019-04-26T09:57:31.392Z,7.30
2019-04-26T10:02:17.375Z,7.40
2019-04-26T10:07:04.066Z,7.50
2019-04-26T10:11:54.631Z,7.50
2019-04-26T10:16:47.000Z,7.50
2019-04-26T10:21:32.989Z,7.40
2019-04-26T10:26:23.249Z,7.40
2019-04-26T10:31:06.949Z,7.50
2019-04-26T10:35:56.808Z,7.50
2019-04-26T10:40:40.933Z,7.60
2019-04-26T10:45:27.264Z,7.50
2019-04-26T10:50:13.419Z,7.40
2019-04-26T10:55:15.989Z,7.30
2019-04-26T11:00:06.539Z,7.30
2019-04-26T11:04:52.674Z,7.30
2019-04-26T11:09:38.604Z,7.40
2019-04-26T11:14:24.625Z,7.40
2019-04-26T11:19:10.968Z,7.40
2019-04-26T11:23:57.265Z,7.40
2019-04-26T11:28:43.037Z,7.30
2019-04-26T11:33:28.994Z,7.20
2019-04-26T11:38:15.198Z,7.10
2019-04-26T11:43:01.236Z,7.30
2019-04-26T11:47:55.865Z,7.50
2019-04-26T11:52:36.013Z,7.80
2019-04-26T11:57:22.602Z,8.10
2019-04-26T12:02:12.132Z,8.10
2019-04-26T12:07:15.163Z,8.40
2019-04-26T12:12:04.901Z,8.20
2019-04-26T12:16:51.392Z,7.90
2019-04-26T12:21:36.046Z,8.10
2019-04-26T12:26:23.136Z,8.20
2019-04-26T12:31:09.182Z,7.90
2019-04-26T12:35:57.065Z,7.50
2019-04-26T12:40:46.143Z,7.50
2019-04-26T12:45:51.549Z,7.30
2019-04-26T12:50:37.741Z,7.40
2019-04-26T12:55:24.311Z,7.50
2019-04-26T13:00:13.186Z,7.40
2019-04-26T13:04:59.144Z,7.40
2019-04-26T13:10:03.809Z,7.50
2019-04-26T13:15:04.659Z,7.60
2019-04-26T13:19:53.896Z,7.60
2019-04-26T13:24:39.799Z,7.50
2019-04-26T13:29:27.197Z,7.60
2019-04-26T13:34:13.146Z,7.90
2019-04-26T13:38:58.996Z,8.10
2019-04-26T13:43:45.014Z,8.20
2019-04-26T13:48:39.069Z,8.40
2019-04-26T13:53:25.792Z,8.10
2019-04-26T13:58:15.365Z,8.00
2019-04-26T14:02:59.571Z,7.90
2019-04-26T14:07:45.295Z,7.90
2019-04-26T14:12:31.724Z,7.80
2019-04-26T14:17:17.645Z,7.80
2019-04-26T14:22:07.056Z,8.00
2019-04-26T14:27:01.052Z,8.00
2019-04-26T14:31:47.310Z,8.00
2019-04-26T14:36:34.348Z,8.00
2019-04-26T14:41:22.669Z,8.00
2019-04-26T14:46:10.363Z,8.00
2019-04-26T14:51:07.399Z,8.20
2019-04-26T14:55:42.976Z,8.20
2019-04-26T15:00:33.889Z,8.10
2019-04-26T15:05:24.091Z,7.70
2019-04-26T15:10:10.962Z,7.70
2019-04-26T15:14:57.660Z,7.60
2019-04-26T15:19:45.869Z,7.50
2019-04-26T15:24:35.108Z,7.40
2019-04-26T15:29:21.312Z,7.30
2019-04-26T15:34:07.019Z,7.20
2019-04-26T15:39:27.758Z,7.20
2019-04-26T15:44:32.627Z,7.20
2019-04-26T15:49:29.783Z,7.20
2019-04-26T15:54:17.835Z,7.20
2019-04-26T15:59:02.639Z,7.30
2019-04-26T16:03:48.892Z,7.50
2019-04-26T16:08:42.718Z,7.80
2019-04-26T16:13:24.129Z,7.90
2019-04-26T16:18:14.764Z,7.70
2019-04-26T16:23:00.367Z,8.10
2019-04-26T16:27:45.969Z,8.30
2019-04-26T16:32:43.289Z,8.40
2019-04-26T16:37:30.291Z,8.10
2019-04-26T16:42:16.775Z,7.90
2019-04-26T16:47:05.696Z,7.90
2019-04-26T16:52:01.488Z,7.70
2019-04-26T16:56:43.871Z,7.60
2019-04-26T17:01:29.711Z,7.40
2019-04-26T17:06:15.696Z,7.40
2019-04-26T17:11:01.705Z,7.50
2019-04-26T17:15:52.066Z,7.50
2019-04-26T17:20:36.272Z,7.50
2019-04-26T17:25:44.232Z,7.50
2019-04-26T17:30:34.503Z,7.80
2019-04-26T17:35:18.389Z,7.70
2019-04-26T17:40:04.780Z,8.60
2019-04-26T17:44:51.659Z,8.90
2019-04-26T17:49:40.179Z,9.40
2019-04-26T17:54:41.459Z,8.20
2019-04-26T17:59:31.392Z,7.70
2019-04-26T18:04:02.053Z,7.40
2019-04-26T18:08:54.570Z,7.10
2019-04-26T18:13:38.292Z,7.00
2019-04-26T18:18:42.997Z,6.90
2019-04-26T18:23:30.553Z,6.80
2019-04-26T18:28:17.328Z,6.80
2019-04-26T18:33:05.277Z,6.80
2019-04-26T18:37:51.628Z,6.80
2019-04-26T18:42:41.893Z,6.90
2019-04-26T18:47:30.450Z,6.80
2019-04-26T18:52:19.360Z,6.80
2019-04-26T18:57:04.984Z,6.80
2019-04-26T19:01:53.371Z,6.70
2019-04-26T19:06:42.234Z,6.70
2019-04-26T19:11:27.831Z,6.60
2019-04-26T19:16:31.966Z,6.70
2019-04-26T19:21:32.283Z,6.70
2019-04-26T19:26:16.933Z,6.70
2019-04-26T19:31:03.072Z,6.70
2019-04-26T19:35:49.103Z,6.60
2019-04-26T19:40:35.265Z,6.60
2019-04-26T19:45:45.746Z,6.60
2019-04-26T19:50:42.339Z,6.60
2019-04-26T19:55:35.709Z,6.60
2019-04-26T20:00:22.092Z,6.50
2019-04-26T20:05:08.763Z,6.50
2019-04-26T20:09:56.335Z,6.40
2019-04-26T20:14:49.108Z,6.40
2019-04-26T20:19:36.906Z,6.30
2019-04-26T20:24:19.362Z,6.20
2019-04-26T20:29:06.346Z,6.20
2019-04-26T20:33:54.017Z,6.20
2019-04-26T20:38:45.549Z,6.10
2019-04-26T20:43:28.012Z,6.10
2019-04-26T20:48:14.366Z,6.10
2019-04-26T20:53:02.230Z,6.20
2019-04-26T20:57:48.806Z,6.20
2019-04-26T21:02:35.061Z,6.10
2019-04-26T21:07:21.927Z,6.20
2019-04-26T21:12:17.063Z,6.10
2019-04-26T21:16:57.680Z,6.00
2019-04-26T21:21:48.363Z,5.90
2019-04-26T21:26:46.649Z,5.80
2019-04-26T21:31:40.544Z,5.70
2019-04-26T21:36:43.816Z,5.70
2019-04-26T21:41:33.769Z,5.80
2019-04-26T21:46:22.873Z,5.90
2019-04-26T21:51:14.449Z,5.90
2019-04-26T21:55:56.964Z,5.70
2019-04-26T22:01:04.723Z,5.80
2019-04-26T22:05:51.222Z,5.80
2019-04-26T22:10:45.869Z,5.70
2019-04-26T22:15:49.982Z,5.70
2019-04-26T22:20:52.166Z,5.60
2019-04-26T22:25:39.738Z,5.40
2019-04-26T22:30:30.846Z,5.20
2019-04-26T22:35:20.207Z,5.00
2019-04-26T22:40:04.519Z,5.00
2019-04-26T22:45:09.459Z,5.00
2019-04-26T22:49:54.344Z,5.20
2019-04-26T22:54:42.854Z,5.30
2019-04-26T22:59:27.672Z,5.40
2019-04-26T23:04:16.251Z,5.40
2019-04-26T23:09:02.618Z,5.40
2019-04-26T23:14:00.024Z,5.40
2019-04-26T23:19:20.412Z,5.60
2019-04-26T23:24:06.938Z,5.70
2019-04-26T23:28:53.546Z,5.80
2019-04-26T23:33:39.597Z,5.70
2019-04-26T23:38:25.394Z,5.70
2019-04-26T23:43:12.951Z,5.50
2019-04-26T23:47:58.540Z,5.50
2019-04-26T23:52:44.306Z,5.50
2019-04-26T23:57:31.254Z,5.60
